Time;durP1;ratioP1;P1;durP2;ratioP2;P2;SDS_P1;SDS_P2;PMS_P1;PMS_P2;Temp;Humidity;BMP_temperature;BMP_pressure;BME280_temperature;BME280_humidity;BME280_pressure;Samples;Min_cycle;Max_cycle;Signal;HPM_P1;HPM_P2
2021/01/27 00:01:09;;;;;;;44.95;24.20;;;;;;;;;;5037276;28;20026;-83
2021/01/27 00:03:35;;;;;;;44.38;24.42;;;;;;;;;;5037510;28;20037;-83
2021/01/27 00:06:02;;;;;;;41.97;23.50;;;;;;;;;;5036883;28;20033;-84
2021/01/27 00:08:28;;;;;;;41.83;24.25;;;;;;;;;;5037180;28;20026;-83
2021/01/27 00:10:54;;;;;;;42.17;24.33;;;;;;;;;;5036480;28;20379;-83
2021/01/27 00:13:20;;;;;;;40.15;22.80;;;;;;;;;;5036297;28;20431;-82
2021/01/27 00:15:47;;;;;;;46.08;23.25;;;;;;;;;;5037382;28;20033;-83
2021/01/27 00:18:14;;;;;;;60.97;26.77;;;;;;;;;;5037441;28;20029;-83
2021/01/27 00:20:40;;;;;;;63.88;30.48;;;;;;;;;;5037403;28;20091;-84
2021/01/27 00:23:07;;;;;;;55.15;27.88;;;;;;;;;;5036133;28;20076;-83
2021/01/27 00:25:34;;;;;;;55.50;26.55;;;;;;;;;;5036369;28;20025;-83
2021/01/27 00:28:01;;;;;;;48.63;25.60;;;;;;;;;;5037503;28;20071;-84
2021/01/27 00:30:45;;;;;;;43.70;24.90;;;;;;;;;;5037422;28;20029;-85
2021/01/27 00:33:12;;;;;;;44.88;25.48;;;;;;;;;;5037222;28;20026;-85
2021/01/27 00:35:40;;;;;;;40.33;24.38;;;;;;;;;;5037200;28;20427;-84
2021/01/27 00:38:40;;;;;;;42.78;24.48;;;;;;;;;;5039493;28;20026;-84
2021/01/27 00:41:06;;;;;;;48.47;24.92;;;;;;;;;;5040756;28;20081;-84
2021/01/27 00:43:33;;;;;;;40.55;23.63;;;;;;;;;;5041218;28;20395;-84
2021/01/27 00:45:59;;;;;;;40.30;23.25;;;;;;;;;;5041123;28;20407;-84
2021/01/27 00:48:25;;;;;;;39.95;21.90;;;;;;;;;;5041112;28;20583;-84
2021/01/27 00:50:51;;;;;;;37.90;23.00;;;;;;;;;;5040942;28;20030;-84
2021/01/27 00:53:17;;;;;;;34.70;22.15;;;;;;;;;;5040007;28;20030;-83
2021/01/27 00:55:43;;;;;;;37.22;22.02;;;;;;;;;;5041062;28;20033;-83
2021/01/27 00:58:10;;;;;;;38.35;22.75;;;;;;;;;;5040799;28;20404;-84
2021/01/27 01:00:37;;;;;;;38.35;21.98;;;;;;;;;;5040886;28;20044;-84
2021/01/27 01:03:04;;;;;;;38.00;22.52;;;;;;;;;;5040967;28;20071;-84
2021/01/27 01:05:33;;;;;;;38.03;22.23;;;;;;;;;;5040898;28;20037;-84
2021/01/27 01:07:59;;;;;;;41.45;22.48;;;;;;;;;;5040905;28;20017;-84
2021/01/27 01:10:30;;;;;;;49.38;23.45;;;;;;;;;;5040592;28;20040;-84
2021/01/27 01:12:57;;;;;;;58.42;26.05;;;;;;;;;;5040306;28;20092;-84
2021/01/27 01:15:24;;;;;;;46.50;24.38;;;;;;;;;;5040671;28;20108;-84
2021/01/27 01:17:50;;;;;;;44.35;23.70;;;;;;;;;;5040788;28;20024;-84
2021/01/27 01:20:17;;;;;;;45.53;25.10;;;;;;;;;;5040433;28;20068;-84
2021/01/27 01:22:44;;;;;;;41.92;22.58;;;;;;;;;;5040230;28;20026;-83
2021/01/27 01:25:10;;;;;;;40.92;21.80;;;;;;;;;;5040213;28;20017;-83
2021/01/27 01:27:37;;;;;;;37.55;21.55;;;;;;;;;;5040238;28;20030;-84
2021/01/27 01:30:06;;;;;;;35.00;20.42;;;;;;;;;;5040329;28;20025;-85
2021/01/27 01:32:32;;;;;;;38.92;19.85;;;;;;;;;;5039616;28;20038;-84
2021/01/27 01:34:58;;;;;;;35.95;20.23;;;;;;;;;;5040064;28;20022;-84
2021/01/27 01:37:24;;;;;;;36.03;22.20;;;;;;;;;;5040127;28;20018;-84
2021/01/27 01:39:50;;;;;;;35.42;20.48;;;;;;;;;;5040177;28;20025;-84
2021/01/27 01:42:20;;;;;;;41.60;23.75;;;;;;;;;;5039833;28;20076;-83
2021/01/27 01:44:46;;;;;;;40.53;22.83;;;;;;;;;;5038984;28;20112;-83
2021/01/27 01:47:12;;;;;;;45.10;24.25;;;;;;;;;;5039937;28;20029;-83
2021/01/27 01:49:38;;;;;;;46.60;24.73;;;;;;;;;;5039177;28;20021;-84
2021/01/27 01:52:05;;;;;;;49.55;26.20;;;;;;;;;;5040185;28;20021;-84
2021/01/27 01:54:31;;;;;;;42.42;22.73;;;;;;;;;;5039846;28;20053;-84
2021/01/27 01:57:01;;;;;;;42.95;22.35;;;;;;;;;;5039822;28;20426;-85
2021/01/27 01:59:28;;;;;;;37.10;21.88;;;;;;;;;;5039999;28;20037;-85
2021/01/27 02:01:59;;;;;;;36.80;22.08;;;;;;;;;;5038768;28;20064;-85
2021/01/27 02:04:27;;;;;;;36.80;21.42;;;;;;;;;;5040010;28;20022;-85
2021/01/27 02:06:53;;;;;;;37.42;20.88;;;;;;;;;;5039735;28;20021;-85
2021/01/27 02:09:19;;;;;;;33.35;20.85;;;;;;;;;;5039818;28;20021;-85
2021/01/27 02:11:52;;;;;;;34.63;20.67;;;;;;;;;;5038417;28;20040;-84
2021/01/27 02:14:17;;;;;;;;;;;;;;;;;;5039956;28;20061;-84
2021/01/27 02:17:01;;;;;;;37.53;20.60;;;;;;;;;;5039285;28;20242;-85
2021/01/27 02:19:46;;;;;;;33.60;20.38;;;;;;;;;;5038509;28;20068;-85
2021/01/27 02:22:30;;;;;;;38.05;21.60;;;;;;;;;;5038567;28;20027;-84
2021/01/27 02:25:08;;;;;;;37.55;20.58;;;;;;;;;;5038194;28;20072;-84
2021/01/27 02:27:41;;;;;;;36.28;20.88;;;;;;;;;;5039491;28;20036;-84
2021/01/27 02:30:13;;;;;;;39.45;21.73;;;;;;;;;;5038375;28;20035;-84
2021/01/27 02:32:39;;;;;;;36.40;21.15;;;;;;;;;;5039456;28;20025;-84
2021/01/27 02:35:10;;;;;;;38.42;21.85;;;;;;;;;;5039365;28;20037;-85
2021/01/27 02:37:55;;;;;;;33.45;21.02;;;;;;;;;;5039558;28;20044;-85
2021/01/27 02:40:59;;;;;;;37.67;21.38;;;;;;;;;;5038241;28;20367;-85
2021/01/27 02:43:36;;;;;;;35.40;21.35;;;;;;;;;;4998057;28;20413;-84
2021/01/27 02:46:16;;;;;;;37.63;23.00;;;;;;;;;;4997824;28;20026;-84
2021/01/27 02:48:58;;;;;;;36.47;21.65;;;;;;;;;;4997875;28;20030;-84
2021/01/27 02:51:27;;;;;;;41.78;24.02;;;;;;;;;;4997835;28;20117;-84
2021/01/27 02:54:13;;;;;;;38.30;23.13;;;;;;;;;;4997022;28;20030;-85
2021/01/27 02:56:46;;;;;;;38.03;21.45;;;;;;;;;;4997467;28;20413;-84
2021/01/27 02:59:18;;;;;;;35.15;20.27;;;;;;;;;;4997846;28;20062;-85
2021/01/27 03:01:57;;;;;;;30.67;19.67;;;;;;;;;;4997930;28;20072;-85
2021/01/27 03:04:27;;;;;;;37.90;22.60;;;;;;;;;;4997783;28;20022;-86
2021/01/27 03:06:55;;;;;;;37.05;22.73;;;;;;;;;;4981311;28;20034;-84
2021/01/27 03:09:24;;;;;;;34.30;20.70;;;;;;;;;;4997453;28;20033;-86
2021/01/27 03:11:50;;;;;;;31.27;18.83;;;;;;;;;;4997299;28;20026;-85
2021/01/27 03:14:16;;;;;;;31.75;19.80;;;;;;;;;;5010974;28;20420;-86
2021/01/27 03:16:45;;;;;;;30.85;20.20;;;;;;;;;;5038803;28;20334;-85
2021/01/27 03:19:11;;;;;;;33.42;19.58;;;;;;;;;;5038462;28;20032;-86
2021/01/27 03:21:42;;;;;;;31.85;19.38;;;;;;;;;;5038224;28;20021;-85
2021/01/27 03:24:11;;;;;;;32.30;19.83;;;;;;;;;;5038314;28;20036;-84
2021/01/27 03:26:43;;;;;;;29.92;18.20;;;;;;;;;;5038372;28;20033;-85
2021/01/27 03:29:16;;;;;;;30.20;17.93;;;;;;;;;;5038382;28;20426;-86
2021/01/27 03:31:42;;;;;;;;;;;;;;;;;;5038564;28;20032;-85
2021/01/27 03:34:11;;;;;;;28.73;17.02;;;;;;;;;;5038115;28;19905;-85
2021/01/27 03:36:41;;;;;;;29.15;16.90;;;;;;;;;;5037120;28;20101;-85
2021/01/27 03:39:08;;;;;;;26.60;16.15;;;;;;;;;;5037978;28;20084;-85
2021/01/27 03:41:39;;;;;;;27.35;16.30;;;;;;;;;;5037999;28;20124;-84
2021/01/27 03:44:18;;;;;;;27.47;16.17;;;;;;;;;;5036832;28;20033;-84
2021/01/27 03:46:44;;;;;;;25.58;15.73;;;;;;;;;;5038003;28;20537;-85
2021/01/27 03:49:13;;;;;;;25.85;14.82;;;;;;;;;;5037882;28;20022;-85
2021/01/27 03:51:41;;;;;;;24.45;15.02;;;;;;;;;;5038032;28;20060;-85
2021/01/27 03:54:10;;;;;;;24.33;14.98;;;;;;;;;;5037852;28;20029;-85
2021/01/27 03:56:44;;;;;;;25.33;15.15;;;;;;;;;;5036742;28;20029;-85
2021/01/27 03:59:11;;;;;;;23.35;14.70;;;;;;;;;;5037745;28;20040;-84
2021/01/27 04:01:49;;;;;;;23.33;14.32;;;;;;;;;;5037551;28;20021;-85
2021/01/27 04:04:16;;;;;;;22.17;14.65;;;;;;;;;;5037661;28;20026;-85
2021/01/27 04:06:42;;;;;;;24.10;15.00;;;;;;;;;;5037706;28;20026;-86
2021/01/27 04:09:17;;;;;;;22.38;14.73;;;;;;;;;;5037567;28;20052;-86
2021/01/27 04:11:43;;;;;;;22.00;14.55;;;;;;;;;;5037195;28;20064;-85
2021/01/27 04:14:10;;;;;;;23.10;14.73;;;;;;;;;;5037522;28;20026;-85
2021/01/27 04:16:36;;;;;;;24.33;15.02;;;;;;;;;;5036564;28;20075;-85
2021/01/27 04:19:04;;;;;;;24.35;14.85;;;;;;;;;;5037854;28;20101;-85
2021/01/27 04:21:30;;;;;;;21.20;14.05;;;;;;;;;;5037762;28;20044;-85
2021/01/27 04:23:56;;;;;;;23.95;14.02;;;;;;;;;;5037637;28;20017;-84
2021/01/27 04:26:22;;;;;;;20.60;13.30;;;;;;;;;;5037425;28;20057;-85
2021/01/27 04:28:49;;;;;;;22.55;14.25;;;;;;;;;;5036580;28;20038;-85
2021/01/27 04:31:15;;;;;;;28.08;16.92;;;;;;;;;;5037526;28;20025;-85
2021/01/27 04:33:42;;;;;;;24.27;14.77;;;;;;;;;;5037605;28;20026;-85
2021/01/27 04:36:08;;;;;;;22.65;14.73;;;;;;;;;;5036493;28;20037;-84
2021/01/27 04:38:34;;;;;;;26.42;16.52;;;;;;;;;;5037438;28;20022;-84
2021/01/27 04:41:00;;;;;;;23.95;17.38;;;;;;;;;;5036918;28;20061;-84
2021/01/27 04:43:46;;;;;;;30.23;20.02;;;;;;;;;;5036368;28;20408;-84
2021/01/27 04:46:18;;;;;;;23.48;16.20;;;;;;;;;;5037212;28;20040;-85
2021/01/27 04:48:44;;;;;;;26.80;17.25;;;;;;;;;;5037085;28;20404;-85
2021/01/27 04:51:13;;;;;;;20.98;15.38;;;;;;;;;;5037125;28;20052;-85
2021/01/27 04:53:59;;;;;;;25.13;16.92;;;;;;;;;;5037508;28;20025;-86
2021/01/27 04:56:32;;;;;;;25.02;16.27;;;;;;;;;;5037046;28;20116;-86
2021/01/27 04:58:58;;;;;;;21.77;15.20;;;;;;;;;;5037277;28;20088;-85
2021/01/27 05:01:34;;;;;;;21.85;14.23;;;;;;;;;;5037171;28;20412;-85
2021/01/27 05:04:19;;;;;;;20.42;14.43;;;;;;;;;;5037192;28;20032;-85
2021/01/27 05:06:48;;;;;;;24.95;15.30;;;;;;;;;;5037031;28;20035;-85
2021/01/27 05:09:46;;;;;;;24.73;15.23;;;;;;;;;;5036247;28;20057;-85
2021/01/27 05:12:13;;;;;;;22.50;14.27;;;;;;;;;;5036291;28;20042;-85
2021/01/27 05:14:39;;;;;;;22.83;14.07;;;;;;;;;;5036842;28;20117;-86
2021/01/27 05:17:10;;;;;;;21.80;14.38;;;;;;;;;;5036965;28;20029;-86
2021/01/27 05:19:36;;;;;;;21.05;13.85;;;;;;;;;;5035848;28;20026;-85
2021/01/27 05:22:04;;;;;;;21.05;13.75;;;;;;;;;;5036201;28;20075;-85
2021/01/27 05:24:30;;;;;;;21.85;14.70;;;;;;;;;;5038166;28;20063;-85
2021/01/27 05:26:59;;;;;;;21.65;13.20;;;;;;;;;;5040737;28;20435;-85
2021/01/27 05:29:43;;;;;;;20.33;14.02;;;;;;;;;;5040759;28;20033;-85
2021/01/27 05:32:12;;;;;;;19.15;12.77;;;;;;;;;;5039419;28;20025;-85
2021/01/27 05:34:40;;;;;;;20.30;14.02;;;;;;;;;;5040090;28;20033;-85
2021/01/27 05:37:08;;;;;;;19.70;13.82;;;;;;;;;;5040325;28;20450;-85
2021/01/27 05:42:37;;;;;;;;;;;;;;;;;;5040495;28;20103;-85
2021/01/27 05:45:22;;;;;;;32.25;20.10;;;;;;;;;;5040382;28;19909;-84
2021/01/27 05:47:48;;;;;;;22.25;15.80;;;;;;;;;;5039415;28;20530;-84
2021/01/27 05:50:19;;;;;;;22.92;16.70;;;;;;;;;;5040538;28;20048;-84
2021/01/27 05:52:45;;;;;;;25.05;17.88;;;;;;;;;;5040226;28;20053;-85
2021/01/27 05:55:11;;;;;;;23.23;17.52;;;;;;;;;;5039800;28;20052;-87
2021/01/27 05:57:37;;;;;;;23.42;15.18;;;;;;;;;;5039196;28;20092;-84
2021/01/27 06:00:21;;;;;;;22.10;15.30;;;;;;;;;;5039829;28;20021;-84
2021/01/27 06:02:48;;;;;;;18.20;13.63;;;;;;;;;;5039565;28;20025;-83
2021/01/27 06:05:15;;;;;;;20.08;14.40;;;;;;;;;;5039665;28;20029;-83
2021/01/27 06:07:42;;;;;;;21.88;15.32;;;;;;;;;;5039587;28;20029;-83
2021/01/27 06:10:26;;;;;;;19.75;13.48;;;;;;;;;;5039871;28;20026;-83
2021/01/27 06:12:52;;;;;;;21.48;14.30;;;;;;;;;;5039430;28;20064;-83
2021/01/27 06:15:38;;;;;;;19.45;13.70;;;;;;;;;;5038442;28;20033;-84
2021/01/27 06:18:18;;;;;;;20.27;13.38;;;;;;;;;;5039076;28;20462;-84
2021/01/27 06:20:44;;;;;;;18.25;13.38;;;;;;;;;;5039690;28;20026;-84
2021/01/27 06:23:29;;;;;;;20.90;14.55;;;;;;;;;;5039441;28;20021;-84
2021/01/27 06:26:08;;;;;;;22.77;15.93;;;;;;;;;;5038135;28;20036;-83
2021/01/27 06:28:53;;;;;;;22.95;14.55;;;;;;;;;;5039159;28;20029;-83
2021/01/27 06:31:27;;;;;;;21.50;14.38;;;;;;;;;;5038253;28;20048;-84
2021/01/27 06:34:08;;;;;;;26.50;16.42;;;;;;;;;;5039223;28;20351;-83
2021/01/27 06:36:34;;;;;;;39.40;19.92;;;;;;;;;;5037783;28;20032;-84
2021/01/27 06:39:03;;;;;;;30.00;17.65;;;;;;;;;;5038940;28;20021;-82
2021/01/27 06:41:48;;;;;;;31.98;20.08;;;;;;;;;;5038853;28;20042;-84
2021/01/27 06:44:14;;;;;;;44.85;26.30;;;;;;;;;;5039393;28;20049;-82
2021/01/27 06:47:00;;;;;;;63.90;36.40;;;;;;;;;;5038974;28;20026;-83
2021/01/27 06:49:45;;;;;;;35.45;21.85;;;;;;;;;;5037783;28;20366;-83
2021/01/27 06:52:11;;;;;;;25.25;16.75;;;;;;;;;;5038996;28;20021;-84
2021/01/27 06:54:41;;;;;;;23.60;16.48;;;;;;;;;;5038748;28;20033;-83
2021/01/27 06:57:07;;;;;;;25.13;15.57;;;;;;;;;;5039064;28;20025;-83
2021/01/27 06:59:45;;;;;;;23.15;16.52;;;;;;;;;;5037773;28;20051;-83
2021/01/27 07:02:11;;;;;;;36.05;21.70;;;;;;;;;;5038285;28;20029;-82
2021/01/27 07:05:07;;;;;;;25.50;18.00;;;;;;;;;;5038124;28;20108;-82
2021/01/27 07:07:51;;;;;;;42.47;24.15;;;;;;;;;;5038749;28;20041;-82
2021/01/27 07:10:24;;;;;;;43.95;24.55;;;;;;;;;;5038285;28;20503;-80
2021/01/27 07:12:56;;;;;;;34.55;21.95;;;;;;;;;;5038103;28;20056;-83
2021/01/27 07:15:37;;;;;;;28.10;18.17;;;;;;;;;;5037242;28;20033;-81
2021/01/27 07:18:22;;;;;;;25.45;17.98;;;;;;;;;;5039070;28;20069;-81
2021/01/27 07:21:08;;;;;;;25.17;17.40;;;;;;;;;;5038103;28;20029;-80
2021/01/27 07:23:56;;;;;;;30.08;18.80;;;;;;;;;;5038340;28;20029;-81
2021/01/27 07:26:31;;;;;;;25.42;16.83;;;;;;;;;;5038861;28;20034;-83
2021/01/27 07:29:19;;;;;;;26.77;18.00;;;;;;;;;;5037257;28;20075;-82
2021/01/27 07:31:46;;;;;;;26.25;17.10;;;;;;;;;;5038226;28;20053;-81
2021/01/27 07:34:13;;;;;;;24.63;17.55;;;;;;;;;;5037928;28;20021;-82
2021/01/27 07:36:41;;;;;;;30.08;19.02;;;;;;;;;;5037873;28;20049;-82
2021/01/27 07:39:10;;;;;;;41.20;21.48;;;;;;;;;;5037852;28;20553;-84
2021/01/27 07:41:43;;;;;;;34.80;19.08;;;;;;;;;;5037348;28;20049;-80
2021/01/27 07:44:13;;;;;;;36.75;21.45;;;;;;;;;;5036577;28;20022;-81
2021/01/27 07:46:49;;;;;;;34.97;21.42;;;;;;;;;;5036897;28;20075;-82
2021/01/27 07:49:20;;;;;;;30.25;19.40;;;;;;;;;;5033459;28;20035;-78
2021/01/27 07:51:51;;;;;;;32.15;20.52;;;;;;;;;;5036857;28;20091;-77
2021/01/27 07:54:29;;;;;;;32.97;20.45;;;;;;;;;;5037023;28;20029;-80
2021/01/27 07:57:14;;;;;;;32.13;22.13;;;;;;;;;;5036651;28;20064;-78
2021/01/27 07:59:50;;;;;;;31.10;21.05;;;;;;;;;;5037214;28;20096;-78
2021/01/27 08:02:21;;;;;;;33.78;22.17;;;;;;;;;;5036991;28;20033;-79
2021/01/27 08:04:49;;;;;;;31.38;19.65;;;;;;;;;;5036319;28;20035;-79
2021/01/27 08:07:18;;;;;;;32.50;21.60;;;;;;;;;;5036869;28;20357;-79
2021/01/27 08:09:44;;;;;;;34.00;22.10;;;;;;;;;;5036739;28;20518;-78
2021/01/27 08:12:10;;;;;;;34.88;21.58;;;;;;;;;;5036498;28;20036;-78
2021/01/27 08:14:55;;;;;;;32.58;20.25;;;;;;;;;;5036856;28;20427;-79
2021/01/27 08:17:41;;;;;;;29.05;19.90;;;;;;;;;;5036476;28;20128;-78
2021/01/27 08:20:17;;;;;;;29.35;19.05;;;;;;;;;;5036748;28;20022;-78
2021/01/27 08:22:51;;;;;;;29.40;19.42;;;;;;;;;;5036774;28;20037;-78
2021/01/27 08:25:43;;;;;;;32.90;21.63;;;;;;;;;;5036946;28;20021;-79
2021/01/27 08:28:16;;;;;;;32.53;21.35;;;;;;;;;;5034636;28;20088;-78
2021/01/27 08:30:42;;;;;;;35.72;22.58;;;;;;;;;;5036657;28;20507;-77
2021/01/27 08:33:27;;;;;;;55.45;30.80;;;;;;;;;;5036797;28;20033;-78
2021/01/27 08:35:53;;;;;;;46.70;26.20;;;;;;;;;;5036791;28;20071;-78
2021/01/27 08:38:28;;;;;;;52.35;27.90;;;;;;;;;;5035450;28;20029;-78
2021/01/27 08:40:54;;;;;;;52.97;30.85;;;;;;;;;;5035531;28;20477;-78
2021/01/27 08:43:25;;;;;;;62.30;33.28;;;;;;;;;;5036700;28;20068;-78
2021/01/27 08:45:51;;;;;;;42.85;26.15;;;;;;;;;;5036760;28;20056;-78
2021/01/27 08:48:37;;;;;;;38.30;21.88;;;;;;;;;;5043416;28;20040;-79
2021/01/27 08:51:03;;;;;;;33.63;21.02;;;;;;;;;;5056331;28;20427;-78
2021/01/27 08:53:49;;;;;;;36.20;22.35;;;;;;;;;;5056494;28;20029;-78
2021/01/27 08:56:15;;;;;;;30.10;19.05;;;;;;;;;;5056076;28;20067;-77
2021/01/27 08:58:45;;;;;;;35.72;22.60;;;;;;;;;;5057957;28;20025;-77
2021/01/27 09:01:24;;;;;;;35.42;22.25;;;;;;;;;;5060368;28;20021;-78
2021/01/27 09:03:50;;;;;;;36.97;22.35;;;;;;;;;;5060065;28;20120;-78
2021/01/27 09:06:21;;;;;;;36.10;22.63;;;;;;;;;;5060119;28;20028;-78
2021/01/27 09:08:51;;;;;;;38.53;22.42;;;;;;;;;;5060163;28;20029;-85
2021/01/27 09:11:18;;;;;;;33.00;22.00;;;;;;;;;;5061858;28;20036;-77
2021/01/27 09:13:45;;;;;;;41.53;23.65;;;;;;;;;;5060370;28;20037;-78
2021/01/27 09:16:20;;;;;;;38.60;23.55;;;;;;;;;;5058426;28;20469;-77
2021/01/27 09:19:02;;;;;;;72.40;34.55;;;;;;;;;;5060253;28;20040;-77
2021/01/27 09:21:28;;;;;;;49.83;26.33;;;;;;;;;;5059337;28;20419;-77
2021/01/27 09:23:56;;;;;;;46.05;27.23;;;;;;;;;;5059897;28;20315;-77
2021/01/27 09:26:30;;;;;;;45.75;25.33;;;;;;;;;;5059825;28;20029;-77
2021/01/27 09:29:07;;;;;;;45.20;26.10;;;;;;;;;;5059828;28;20048;-77
2021/01/27 09:31:33;;;;;;;80.15;39.35;;;;;;;;;;5059621;28;20354;-76
2021/01/27 09:33:59;;;;;;;40.75;24.95;;;;;;;;;;5059973;28;20051;-77
2021/01/27 09:36:27;;;;;;;40.03;23.48;;;;;;;;;;5059713;28;20129;-78
2021/01/27 09:38:54;;;;;;;32.70;20.30;;;;;;;;;;5058524;28;20025;-78
2021/01/27 09:41:32;;;;;;;35.38;22.13;;;;;;;;;;5059188;28;20037;-77
2021/01/27 09:43:59;;;;;;;37.20;21.23;;;;;;;;;;5059480;28;20079;-77
2021/01/27 09:46:35;;;;;;;41.42;23.45;;;;;;;;;;5059486;28;20419;-77
2021/01/27 09:49:06;;;;;;;35.63;21.52;;;;;;;;;;5059176;28;20033;-77
2021/01/27 09:51:32;;;;;;;39.30;23.05;;;;;;;;;;5058269;28;20119;-78
2021/01/27 09:54:00;;;;;;;52.80;29.75;;;;;;;;;;5059302;28;20025;-77
2021/01/27 09:56:27;;;;;;;87.10;48.05;;;;;;;;;;5059079;28;20025;-78
2021/01/27 09:58:54;;;;;;;34.95;21.48;;;;;;;;;;5059480;28;20021;-78
2021/01/27 10:01:25;;;;;;;33.30;21.05;;;;;;;;;;5059272;28;20377;-78
2021/01/27 10:03:54;;;;;;;37.10;21.38;;;;;;;;;;5059076;28;20068;-78
2021/01/27 10:06:39;;;;;;;37.55;23.02;;;;;;;;;;5059194;28;20353;-77
2021/01/27 10:09:08;;;;;;;75.95;35.28;;;;;;;;;;5057855;28;20041;-77
2021/01/27 10:11:35;;;;;;;61.83;29.75;;;;;;;;;;5058339;28;20111;-78
2021/01/27 10:14:08;;;;;;;85.45;35.72;;;;;;;;;;5058470;28;20025;-78
2021/01/27 10:16:47;;;;;;;123.63;51.80;;;;;;;;;;5058755;28;20032;-78
2021/01/27 10:19:13;;;;;;;71.63;33.10;;;;;;;;;;5058940;28;20017;-79
2021/01/27 10:21:47;;;;;;;61.95;31.02;;;;;;;;;;5057737;28;20033;-78
2021/01/27 10:24:31;;;;;;;43.67;22.77;;;;;;;;;;5058753;28;20024;-79
2021/01/27 10:27:03;;;;;;;62.50;28.48;;;;;;;;;;5058596;28;20036;-77
2021/01/27 10:29:36;;;;;;;32.97;19.45;;;;;;;;;;5058671;28;20021;-79
2021/01/27 10:32:20;;;;;;;35.00;18.85;;;;;;;;;;5057649;28;20061;-77
2021/01/27 10:34:47;;;;;;;33.58;20.10;;;;;;;;;;5058728;28;20115;-78
2021/01/27 10:37:32;;;;;;;29.77;18.75;;;;;;;;;;5058198;28;20053;-78
2021/01/27 10:40:14;;;;;;;30.17;18.73;;;;;;;;;;5058542;28;20021;-79
2021/01/27 10:42:41;;;;;;;74.10;33.78;;;;;;;;;;5058270;28;20339;-78
2021/01/27 10:45:33;;;;;;;30.45;17.30;;;;;;;;;;5058676;28;20025;-80
2021/01/27 10:48:11;;;;;;;35.15;21.38;;;;;;;;;;5056154;28;20060;-78
2021/01/27 10:50:41;;;;;;;38.13;21.27;;;;;;;;;;5057184;28;20095;-79
2021/01/27 10:53:10;;;;;;;40.42;23.75;;;;;;;;;;5057995;28;20111;-78
2021/01/27 10:55:37;;;;;;;62.83;29.13;;;;;;;;;;5056849;28;20036;-77
2021/01/27 10:58:08;;;;;;;33.20;20.05;;;;;;;;;;5058257;28;20021;-78
2021/01/27 11:00:34;;;;;;;33.80;19.50;;;;;;;;;;5057144;28;20029;-80
2021/01/27 11:03:00;;;;;;;40.33;21.30;;;;;;;;;;5058150;28;20078;-78
2021/01/27 11:05:27;;;;;;;38.47;20.92;;;;;;;;;;5058117;28;20041;-78
2021/01/27 11:07:53;;;;;;;33.10;19.63;;;;;;;;;;5058125;28;20021;-78
2021/01/27 11:10:20;;;;;;;38.30;21.92;;;;;;;;;;5057880;28;20028;-78
2021/01/27 11:12:46;;;;;;;32.97;19.65;;;;;;;;;;5058034;28;20032;-79
2021/01/27 11:15:12;;;;;;;36.08;22.50;;;;;;;;;;5057838;28;20062;-80
2021/01/27 11:17:38;;;;;;;61.05;28.20;;;;;;;;;;5057451;28;20039;-79
2021/01/27 11:20:05;;;;;;;46.75;23.92;;;;;;;;;;5057651;28;20113;-78
2021/01/27 11:22:32;;;;;;;42.85;22.85;;;;;;;;;;5056393;28;20036;-79
2021/01/27 11:24:58;;;;;;;38.05;22.27;;;;;;;;;;5057614;28;20033;-80
2021/01/27 11:27:24;;;;;;;37.95;22.52;;;;;;;;;;5057790;28;20025;-79
2021/01/27 11:29:50;;;;;;;35.20;18.85;;;;;;;;;;5057412;28;20355;-79
2021/01/27 11:32:16;;;;;;;73.80;28.20;;;;;;;;;;5057675;28;20114;-78
2021/01/27 11:34:42;;;;;;;90.05;32.92;;;;;;;;;;5057468;28;20017;-78
2021/01/27 11:37:09;;;;;;;46.83;23.45;;;;;;;;;;5056215;28;20041;-77
2021/01/27 11:39:35;;;;;;;33.20;18.35;;;;;;;;;;5057382;28;20029;-77
2021/01/27 11:42:01;;;;;;;36.42;20.30;;;;;;;;;;5056975;28;20523;-80
2021/01/27 11:44:27;;;;;;;112.65;41.60;;;;;;;;;;5056673;28;20134;-79
2021/01/27 11:46:53;;;;;;;61.20;26.65;;;;;;;;;;5051193;28;20049;-78
2021/01/27 11:49:19;;;;;;;54.10;26.20;;;;;;;;;;5038389;28;20021;-81
2021/01/27 11:51:45;;;;;;;28.42;18.20;;;;;;;;;;5037182;28;20028;-82
2021/01/27 11:54:12;;;;;;;77.97;35.25;;;;;;;;;;5037427;28;20022;-78
2021/01/27 11:56:40;;;;;;;88.10;38.25;;;;;;;;;;5037086;28;20411;-79
2021/01/27 11:59:07;;;;;;;52.28;27.30;;;;;;;;;;5037488;28;20026;-78
2021/01/27 12:01:35;;;;;;;33.17;20.92;;;;;;;;;;5037252;28;20025;-83
2021/01/27 12:04:01;;;;;;;39.83;25.27;;;;;;;;;;5037522;28;20021;-84
2021/01/27 12:06:27;;;;;;;67.25;34.20;;;;;;;;;;5037241;28;20026;-85
2021/01/27 12:08:53;;;;;;;62.70;34.92;;;;;;;;;;5037321;28;20323;-83
2021/01/27 12:11:19;;;;;;;60.22;30.50;;;;;;;;;;5037169;28;20499;-84
2021/01/27 12:13:46;;;;;;;71.28;35.00;;;;;;;;;;5036489;28;20448;-84
2021/01/27 12:16:12;;;;;;;57.00;30.45;;;;;;;;;;5037154;28;20033;-84
2021/01/27 12:18:38;;;;;;;59.38;30.25;;;;;;;;;;5046661;28;20032;-84
2021/01/27 12:21:04;;;;;;;39.03;22.38;;;;;;;;;;5057200;28;20028;-85
2021/01/27 12:23:30;;;;;;;70.78;35.15;;;;;;;;;;5057258;28;20407;-84
2021/01/27 12:25:56;;;;;;;36.00;18.75;;;;;;;;;;5056810;28;20104;-85
2021/01/27 12:28:22;;;;;;;50.58;24.80;;;;;;;;;;5056908;28;20028;-85
2021/01/27 12:30:48;;;;;;;133.40;47.38;;;;;;;;;;5057286;28;20056;-85
2021/01/27 12:33:14;;;;;;;69.18;27.63;;;;;;;;;;5057762;28;20025;-85
2021/01/27 12:35:40;;;;;;;56.47;25.48;;;;;;;;;;5061133;28;20028;-85
2021/01/27 12:38:06;;;;;;;81.80;34.97;;;;;;;;;;5061197;28;20013;-85
2021/01/27 12:40:33;;;;;;;48.22;22.67;;;;;;;;;;5060917;28;20445;-84
2021/01/27 12:42:59;;;;;;;32.05;17.83;;;;;;;;;;5061054;28;20423;-84
2021/01/27 12:45:26;;;;;;;35.63;17.13;;;;;;;;;;5060327;28;20371;-85
2021/01/27 12:47:53;;;;;;;29.00;14.02;;;;;;;;;;5059893;28;20027;-84
2021/01/27 12:50:20;;;;;;;26.35;15.35;;;;;;;;;;5060316;28;20021;-85
2021/01/27 12:52:46;;;;;;;25.70;14.07;;;;;;;;;;5061279;28;20039;-85
2021/01/27 12:55:13;;;;;;;21.42;12.95;;;;;;;;;;5060267;28;20029;-84
2021/01/27 12:57:40;;;;;;;22.77;13.85;;;;;;;;;;5059975;28;20074;-85
2021/01/27 13:00:08;;;;;;;40.10;18.13;;;;;;;;;;5060828;28;20017;-85
2021/01/27 13:02:34;;;;;;;24.25;12.57;;;;;;;;;;5060998;28;20319;-84
2021/01/27 13:05:00;;;;;;;24.58;13.32;;;;;;;;;;5060825;28;20090;-85
2021/01/27 13:07:26;;;;;;;30.20;15.73;;;;;;;;;;5060725;28;20292;-85
2021/01/27 13:09:52;;;;;;;25.48;14.70;;;;;;;;;;5060513;28;20407;-84
2021/01/27 13:12:18;;;;;;;30.30;16.33;;;;;;;;;;5060068;28;20104;-84
2021/01/27 13:14:44;;;;;;;31.05;17.23;;;;;;;;;;5059725;28;20033;-84
2021/01/27 13:17:10;;;;;;;31.80;16.30;;;;;;;;;;5060385;28;20040;-84
2021/01/27 13:19:36;;;;;;;41.58;18.27;;;;;;;;;;5060284;28;20025;-84
2021/01/27 13:22:02;;;;;;;33.13;16.83;;;;;;;;;;5059336;28;20029;-84
2021/01/27 13:24:28;;;;;;;29.00;16.73;;;;;;;;;;5060157;28;20032;-85
2021/01/27 13:26:54;;;;;;;34.15;18.00;;;;;;;;;;5060263;28;20057;-85
2021/01/27 13:29:21;;;;;;;30.58;17.13;;;;;;;;;;5060590;28;20047;-84
2021/01/27 13:31:47;;;;;;;33.63;17.30;;;;;;;;;;5060174;28;20125;-84
2021/01/27 13:34:13;;;;;;;45.72;21.83;;;;;;;;;;5059194;28;20071;-85
2021/01/27 13:36:39;;;;;;;72.90;32.33;;;;;;;;;;5059126;28;20068;-84
2021/01/27 13:39:05;;;;;;;23.13;13.10;;;;;;;;;;5060229;28;20059;-84
2021/01/27 13:41:31;;;;;;;35.38;16.90;;;;;;;;;;5059504;28;20044;-85
2021/01/27 13:43:57;;;;;;;22.92;12.43;;;;;;;;;;5059045;28;20067;-85
2021/01/27 13:46:23;;;;;;;195.02;63.38;;;;;;;;;;5057877;28;20029;-84
2021/01/27 13:48:49;;;;;;;16.75;9.48;;;;;;;;;;5059758;28;20060;-84
2021/01/27 13:51:15;;;;;;;17.02;8.43;;;;;;;;;;5060013;28;20025;-84
2021/01/27 13:53:44;;;;;;;14.88;9.27;;;;;;;;;;5059857;28;20150;-85
2021/01/27 13:56:10;;;;;;;28.00;12.73;;;;;;;;;;5058606;28;20033;-85
2021/01/27 13:58:36;;;;;;;38.67;15.57;;;;;;;;;;5058647;28;20037;-84
2021/01/27 14:01:02;;;;;;;37.78;15.88;;;;;;;;;;5059578;28;20374;-84
2021/01/27 14:03:28;;;;;;;24.90;11.57;;;;;;;;;;5059971;28;20052;-84
2021/01/27 14:05:54;;;;;;;71.50;25.85;;;;;;;;;;5059141;28;20035;-84
2021/01/27 14:08:20;;;;;;;27.55;14.20;;;;;;;;;;5058705;28;20044;-84
2021/01/27 14:10:46;;;;;;;86.32;32.75;;;;;;;;;;5059319;28;20063;-84
2021/01/27 14:13:12;;;;;;;51.83;23.80;;;;;;;;;;5058126;28;20021;-84
2021/01/27 14:15:38;;;;;;;43.65;20.48;;;;;;;;;;5057771;28;20033;-84
2021/01/27 14:18:06;;;;;;;47.30;21.88;;;;;;;;;;5052717;28;20040;-83
2021/01/27 14:20:32;;;;;;;65.93;27.10;;;;;;;;;;5046984;28;20036;-83
2021/01/27 14:22:58;;;;;;;78.57;33.63;;;;;;;;;;5059075;28;20029;-83
2021/01/27 14:25:25;;;;;;;55.20;26.45;;;;;;;;;;5058796;28;20151;-83
2021/01/27 14:27:52;;;;;;;31.60;16.73;;;;;;;;;;5057798;28;20040;-83
2021/01/27 14:30:20;;;;;;;54.45;26.13;;;;;;;;;;5057941;28;20114;-83
2021/01/27 14:32:47;;;;;;;73.32;35.75;;;;;;;;;;5058891;28;20028;-83
2021/01/27 14:35:14;;;;;;;20.70;11.50;;;;;;;;;;5058924;28;20047;-83
2021/01/27 14:37:40;;;;;;;46.22;23.23;;;;;;;;;;5058959;28;20021;-83
2021/01/27 14:40:06;;;;;;;23.88;13.55;;;;;;;;;;5057446;28;20435;-83